createdAt,value
2019-06-07T00:02:30.740Z,20.40
2019-06-07T00:07:45.624Z,20.37
2019-06-07T00:12:52.827Z,15.27
2019-06-07T00:18:05.012Z,26.77
2019-06-07T00:23:14.767Z,18.13
2019-06-07T00:28:22.505Z,20.40
2019-06-07T00:33:28.088Z,19.05
2019-06-07T00:38:41.916Z,21.00
2019-06-07T00:43:45.434Z,20.72
2019-06-07T00:48:55.213Z,18.87
2019-06-07T00:54:07.733Z,19.00
2019-06-07T00:59:14.654Z,20.20
2019-06-07T01:04:25.965Z,21.57
2019-06-07T01:09:55.348Z,19.95
2019-06-07T01:14:48.376Z,19.62
2019-06-07T01:19:49.791Z,20.55
2019-06-07T01:24:59.055Z,21.42
2019-06-07T01:30:07.235Z,20.82
2019-06-07T01:35:20.220Z,22.87
2019-06-07T01:40:32.578Z,23.10
2019-06-07T01:45:47.619Z,23.85
2019-06-07T01:50:42.552Z,20.05
2019-06-07T01:55:48.909Z,22.45
2019-06-07T02:00:58.241Z,22.05
2019-06-07T02:06:18.426Z,21.12
2019-06-07T02:11:11.012Z,22.45
2019-06-07T02:16:19.324Z,22.55
2019-06-07T02:21:34.068Z,21.27
2019-06-07T02:26:41.934Z,25.52
2019-06-07T02:31:53.956Z,24.15
2019-06-07T02:37:01.854Z,25.15
2019-06-07T02:42:10.961Z,27.98
2019-06-07T02:47:19.569Z,25.08
2019-06-07T02:52:42.766Z,23.15
2019-06-07T02:57:46.771Z,23.47
2019-06-07T03:02:46.347Z,23.45
2019-06-07T03:08:11.243Z,25.02
2019-06-07T03:13:28.583Z,20.80
2019-06-07T03:18:41.762Z,23.02
2019-06-07T03:23:51.469Z,23.62
2019-06-07T03:29:02.814Z,24.63
2019-06-07T03:34:10.892Z,24.60
2019-06-07T03:39:48.149Z,20.65
2019-06-07T03:44:41.588Z,24.25
2019-06-07T03:49:45.554Z,23.12
2019-06-07T03:54:50.369Z,26.12
2019-06-07T04:00:08.620Z,26.40
2019-06-07T04:05:19.536Z,26.27
2019-06-07T04:10:48.529Z,24.32
2019-06-07T04:15:53.111Z,28.37
2019-06-07T04:21:02.078Z,29.00
2019-06-07T04:27:45.104Z,31.02
2019-06-07T04:31:18.006Z,30.77
2019-06-07T04:36:46.018Z,29.42
2019-06-07T04:41:47.263Z,31.80
2019-06-07T04:47:16.270Z,31.80
2019-06-07T04:52:20.684Z,25.23
2019-06-07T04:57:25.151Z,30.05
2019-06-07T05:02:29.619Z,24.92
2019-06-07T05:07:35.143Z,27.67
2019-06-07T05:12:43.966Z,24.87
2019-06-07T05:17:46.285Z,29.12
2019-06-07T05:22:50.701Z,30.27
2019-06-07T05:27:55.153Z,27.15
2019-06-07T05:32:59.778Z,25.30
2019-06-07T05:38:04.506Z,22.85
2019-06-07T05:43:12.430Z,22.22
2019-06-07T05:48:16.828Z,21.68
2019-06-07T05:53:22.738Z,22.15
2019-06-07T05:58:27.230Z,24.32
2019-06-07T06:03:31.724Z,26.50
2019-06-07T06:08:37.741Z,22.45
2019-06-07T06:14:03.539Z,24.05
2019-06-07T06:18:49.218Z,21.70
2019-06-07T06:23:54.043Z,24.60
2019-06-07T06:28:58.655Z,20.95
2019-06-07T06:34:03.137Z,17.85
2019-06-07T06:39:08.752Z,18.45
2019-06-07T06:44:13.144Z,19.37
2019-06-07T06:49:17.538Z,18.15
2019-06-07T06:54:39.470Z,20.40
2019-06-07T06:59:38.807Z,17.27
2019-06-07T07:04:34.712Z,17.37
2019-06-07T07:09:39.175Z,15.80
2019-06-07T07:14:46.989Z,16.05
2019-06-07T07:19:52.298Z,16.65
2019-06-07T07:24:56.476Z,16.30
2019-06-07T07:30:34.848Z,14.07
2019-06-07T07:35:07.377Z,14.83
2019-06-07T07:40:55.721Z,16.20
2019-06-07T07:45:18.184Z,14.43
2019-06-07T07:50:22.549Z,14.87
2019-06-07T07:55:27.231Z,15.85
2019-06-07T08:05:43.021Z,16.40
2019-06-07T08:10:44.907Z,36.65
2019-06-07T08:15:53.333Z,14.53
2019-06-07T08:21:15.375Z,13.65
2019-06-07T08:26:02.068Z,19.55
2019-06-07T08:31:07.735Z,16.10
2019-06-07T08:36:20.285Z,12.78
2019-06-07T08:41:18.744Z,18.42
2019-06-07T08:46:23.132Z,15.50
2019-06-07T08:51:27.515Z,13.00
2019-06-07T08:56:31.882Z,16.75
2019-06-07T09:01:36.253Z,14.70
2019-06-07T09:07:02.380Z,18.40
2019-06-07T09:11:46.897Z,14.13
2019-06-07T09:16:51.338Z,13.20
2019-06-07T09:21:57.565Z,11.75
2019-06-07T09:27:05.140Z,15.25
2019-06-07T09:32:11.957Z,9.63
2019-06-07T09:38:03.163Z,12.63
2019-06-07T09:42:20.313Z,15.38
2019-06-07T09:47:32.649Z,13.98
2019-06-07T09:52:30.758Z,14.18
2019-06-07T09:57:35.217Z,13.55
2019-06-07T10:02:39.680Z,13.10
2019-06-07T10:08:00.162Z,14.10
2019-06-07T10:12:50.241Z,14.80
2019-06-07T10:17:54.651Z,13.75
2019-06-07T10:22:59.564Z,14.20
2019-06-07T10:28:04.035Z,15.38
2019-06-07T10:33:08.657Z,19.17
2019-06-07T10:38:13.146Z,17.48
2019-06-07T10:43:17.534Z,12.98
2019-06-07T10:48:24.358Z,14.45
2019-06-07T10:53:28.036Z,14.53
2019-06-07T10:58:32.434Z,18.42
2019-06-07T11:03:36.801Z,15.55
2019-06-07T11:08:41.205Z,14.07
2019-06-07T11:13:45.646Z,13.30
2019-06-07T11:18:50.034Z,12.45
2019-06-07T11:23:54.424Z,10.20
2019-06-07T11:28:58.888Z,11.30
2019-06-07T11:34:03.275Z,12.18
2019-06-07T11:39:10.952Z,10.38
2019-06-07T11:44:17.070Z,16.82
2019-06-07T11:49:22.087Z,11.75
2019-06-07T11:54:26.580Z,12.43
2019-06-07T11:59:30.951Z,14.03
2019-06-07T12:04:35.366Z,9.60
2019-06-07T12:09:55.430Z,12.47
2019-06-07T12:14:45.913Z,12.98
2019-06-07T12:19:50.430Z,8.30
2019-06-07T12:24:54.854Z,10.70
2019-06-07T12:29:59.245Z,8.63
2019-06-07T12:35:05.043Z,7.72
2019-06-07T12:40:10.301Z,20.27
2019-06-07T12:45:36.682Z,13.00
2019-06-07T12:50:25.248Z,9.08
2019-06-07T12:55:28.873Z,11.80
2019-06-07T13:00:33.365Z,11.63
2019-06-07T13:05:38.081Z,13.20
2019-06-07T13:10:42.485Z,10.28
2019-06-07T13:15:46.932Z,6.75
2019-06-07T13:20:55.221Z,9.50
2019-06-07T13:25:57.481Z,14.20
2019-06-07T13:31:01.909Z,7.40
2019-06-07T13:36:06.432Z,8.28
2019-06-07T13:41:10.944Z,9.75
2019-06-07T13:46:16.793Z,12.40
2019-06-07T13:51:23.232Z,11.43
2019-06-07T13:56:28.382Z,8.78
2019-06-07T14:01:32.819Z,6.50
2019-06-07T14:06:37.231Z,5.28
2019-06-07T14:11:50.639Z,6.50
2019-06-07T14:16:47.801Z,4.50
2019-06-07T14:21:52.308Z,7.00
2019-06-07T14:27:08.835Z,6.62
2019-06-07T14:32:13.293Z,7.17
2019-06-07T14:37:17.813Z,6.78
2019-06-07T14:42:23.417Z,13.00
2019-06-07T14:47:28.138Z,14.78
2019-06-07T14:52:33.426Z,10.43
2019-06-07T14:57:39.257Z,9.40
2019-06-07T15:02:43.720Z,7.67
2019-06-07T15:07:48.177Z,8.65
2019-06-07T15:12:52.578Z,9.75
2019-06-07T15:17:57.022Z,7.10
2019-06-07T15:23:01.470Z,8.63
2019-06-07T15:28:05.857Z,6.65
2019-06-07T15:33:10.313Z,5.90
2019-06-07T15:38:14.705Z,6.87
2019-06-07T15:43:19.216Z,5.90
2019-06-07T15:48:23.589Z,6.78
2019-06-07T15:53:28.008Z,5.15
2019-06-07T15:58:33.104Z,4.90
2019-06-07T16:03:38.039Z,5.15
2019-06-07T16:08:42.645Z,4.10
2019-06-07T16:13:48.382Z,6.03
2019-06-07T16:18:52.791Z,6.35
2019-06-07T16:23:57.160Z,5.58
2019-06-07T16:29:01.580Z,6.20
2019-06-07T16:34:06.097Z,4.25
2019-06-07T16:39:10.561Z,5.15
2019-06-07T16:44:14.923Z,4.25
2019-06-07T16:49:19.339Z,3.98
2019-06-07T16:54:23.803Z,4.42
2019-06-07T16:59:28.194Z,4.92
2019-06-07T17:04:32.583Z,3.27
2019-06-07T17:09:38.155Z,4.35
2019-06-07T17:14:42.593Z,3.83
2019-06-07T17:19:47.138Z,3.95
2019-06-07T17:24:51.673Z,5.00
2019-06-07T17:29:56.082Z,4.65
2019-06-07T17:35:00.456Z,3.87
2019-06-07T17:40:06.895Z,7.72
2019-06-07T17:45:12.828Z,3.15
2019-06-07T17:50:17.531Z,4.83
2019-06-07T17:55:22.093Z,3.92
2019-06-07T18:00:33.253Z,3.75
2019-06-07T18:05:37.392Z,5.33
2019-06-07T18:10:43.660Z,3.50
2019-06-07T18:15:53.993Z,4.40
2019-06-07T18:20:55.679Z,3.12
2019-06-07T18:26:00.182Z,3.52
2019-06-07T18:31:04.897Z,6.47
2019-06-07T18:36:09.374Z,4.55
2019-06-07T18:41:13.770Z,2.80
2019-06-07T18:46:18.167Z,3.45
2019-06-07T18:51:22.782Z,4.05
2019-06-07T18:56:29.222Z,7.28
2019-06-07T19:01:33.721Z,5.83
2019-06-07T19:06:38.146Z,4.85
2019-06-07T19:11:42.660Z,6.87
2019-06-07T19:16:47.034Z,4.87
2019-06-07T19:21:52.051Z,3.27
2019-06-07T19:26:56.756Z,5.62
2019-06-07T19:32:01.302Z,3.72
2019-06-07T19:37:05.784Z,4.85
2019-06-07T19:42:10.170Z,5.35
2019-06-07T19:47:14.608Z,3.83
2019-06-07T19:52:19.007Z,4.40
2019-06-07T19:57:23.449Z,4.65
2019-06-07T20:02:27.808Z,3.08
2019-06-07T20:07:32.208Z,5.10
2019-06-07T22:12:57.442Z,7.05
2019-06-07T22:40:50.678Z,3.17
